• Join FlightAware (Why Join?)
  • Login
  • US Flag 
09:36PM EDT


 

Airport Tracker/Info


-or-


 

Live Flight TrackerFlight Track Log ✈ ASQ5874 ✈ 26-Apr-2014 ✈ KEWR - CYHZ

Flight Track Log - Related Links

Times and Time Zones

All times are in EDT time to prevent confusion due to time zone crossing. See the ASQ5874 flight status page for this flight to view local times or setup timezone preferences in your user account.

Time Position Orientation Groundspeed Altitude Reporting Facility
EDT Latitude Longitude Course Direction KTS MPH feet Rate Location/Type
10:24AM 40.7167 -74.1500 53° Northeast 155 178 1,000  Level New York TRACON
10:25AM 40.7500 -74.1167 34° Northeast 189 217 2,800 1,920 Climbing New York TRACON
10:26AM 40.9323 -73.7853 56° Northeast  Level FlightAware Approximate
10:26AM 40.7833 -74.0500 57° Northeast 248 285 4,900  Level New York TRACON
10:27AM 41.0198 -73.6771 56° Northeast  Level FlightAware Approximate
10:27AM 40.8167 -73.9500 66° East 268 308 7,000  Level New York TRACON
10:28AM 41.0974 -73.5403 46° Northeast  Level FlightAware Approximate
10:28AM 40.8667 -73.8667 52° Northeast 274 315 9,000  Level New York TRACON
10:29AM 41.1822 -73.4105 53° Northeast  Level FlightAware Approximate
10:29AM 40.9167 -73.8000 45° Northeast 305 351 10,100  Level New York TRACON
10:31AM 41.0589 -73.5936 48° Northeast 367 422 12,400 1,440 Climbing Boston Center
10:32AM 41.1267 -73.4994 46° Northeast 358 412 14,600 1,620 Climbing Boston Center
10:33AM 41.1942 -73.4042 47° Northeast 354 407 15,700 1,020 Climbing Boston Center
10:34AM 41.2697 -73.2964 47° Northeast 378 435 16,700 960 Climbing Boston Center
10:35AM 41.3444 -73.1906 47° Northeast 394 453 17,700 960 Climbing Boston Center
10:36AM 41.4111 -73.0717 53° Northeast 402 463 18,700 960 Climbing Boston Center
10:37AM 41.4658 -72.9469 60° Northeast 414 476 19,700 900 Climbing Boston Center
10:38AM 41.5250 -72.8122 60° Northeast 417 480 20,600 960 Climbing Boston Center
10:39AM 41.5878 -72.6703 59° Northeast 421 484 21,700 960 Climbing Boston Center
10:40AM 41.6472 -72.5325 60° Northeast 425 489 22,600 900 Climbing Boston Center
10:41AM 41.7103 -72.4006 57° Northeast 426 490 23,600 960 Climbing Boston Center
10:42AM 41.8006 -72.2975 40° Northeast 430 495 24,600 900 Climbing Boston Center
10:43AM 41.8933 -72.1986 38° Northeast 430 495 25,500 960 Climbing Boston Center
10:44AM 41.9858 -72.1011 38° Northeast 427 491 26,600 1,140 Climbing Boston Center
10:45AM 42.0939 -71.9856 38° Northeast 422 486 27,900 1,140 Climbing Boston Center
10:46AM 42.1844 -71.8889 38° Northeast 420 483 29,000 960 Climbing Boston Center
10:47AM 42.2753 -71.7922 38° Northeast 420 483 29,900 900 Climbing Boston Center
10:48AM 42.3669 -71.6933 39° Northeast 419 482 30,900 540 Climbing Boston Center
10:49AM 42.4608 -71.5908 39° Northeast 429 494 31,000  Climbing Boston Center
10:50AM 42.5675 -71.4744 39° Northeast 463 533 31,000  Level Boston Center
10:51AM 42.6717 -71.3617 39° Northeast 471 542 31,000  Level Boston Center
10:52AM 42.7756 -71.2478 39° Northeast 477 549 31,000  Level Boston Center
10:53AM 42.8792 -71.1333 39° Northeast 478 550 31,000  Level Boston Center
10:54AM 42.9844 -71.0169 39° Northeast 480 552 31,000  Level Boston Center
10:55AM 43.0900 -70.9014 39° Northeast 483 556 31,000  Level Boston Center
10:56AM 43.1933 -70.7858 39° Northeast 483 556 31,000  Level Boston Center
10:57AM 43.2975 -70.6689 39° Northeast 483 556 31,000  Level Boston Center
10:58AM 43.4053 -70.5481 39° Northeast 478 550 31,000  Level Boston Center
10:59AM 43.5075 -70.4306 40° Northeast 477 549 31,000  Level Boston Center
11:00AM 43.6100 -70.3139 39° Northeast 476 548 31,000  Level Boston Center
11:01AM 43.7122 -70.2003 39° Northeast 474 545 31,000  Level Boston Center
11:02AM 43.8131 -70.0833 40° Northeast 473 544 31,000  Level Boston Center
11:03AM 43.9150 -69.9664 40° Northeast 473 544 31,000  Level Boston Center
11:04AM 44.0358 -69.8247 40° Northeast 474 545 31,000  Level Boston Center
11:05AM 44.1375 -69.7092 39° Northeast 472 543 31,000  Level Boston Center
11:06AM 44.2375 -69.5917 40° Northeast 471 542 31,000  Level Boston Center
11:07AM 44.3381 -69.4739 40° Northeast 471 542 31,000  Level Boston Center
11:08AM 44.4389 -69.3558 40° Northeast 472 543 31,000  Level Boston Center
11:09AM 44.5392 -69.2367 40° Northeast 473 544 31,000  Level Boston Center
11:10AM 44.6386 -69.1181 40° Northeast 473 544 31,000  Level Boston Center
11:11AM 44.7397 -68.9997 40° Northeast 474 545 31,000  Level Boston Center
11:12AM 44.8258 -68.8642 48° Northeast 472 543 31,000  Level Boston Center
11:13AM 44.8478 -68.6931 80° East 447 514 31,000  Level Boston Center
11:14AM 44.8542 -68.5189 87° East 444 511 31,000  Level Boston Center
11:15AM 44.8600 -68.3447 87° East 442 509 31,000  Level Boston Center
11:16AM 44.8500 -68.2167 96° East 440 506 31,000  Level Moncton Center
11:17AM 44.8667 -68.0500 82° East 440 506 31,000  Level Moncton Center
11:18AM 44.8667 -67.8833 90° East 440 506 31,000  Level Moncton Center
11:19AM 44.8667 -67.7000 90° East 440 506 31,000  Level Moncton Center
11:19AM 44.8831 -67.6364 70° East 445 512 31,000  Level Boston Center
11:20AM 44.8833 -67.5333 90° East 450 518 31,000  Level Moncton Center
11:21AM 44.8833 -67.3500 90° East 450 518 31,000  Level Moncton Center
11:22AM 44.8833 -67.1667 90° East 450 518 31,000  Level Moncton Center
11:23AM 44.9000 -67.0000 82° East 450 518 31,000  Level Moncton Center
11:24AM 44.9000 -66.8000 90° East 460 529 31,000  Level Moncton Center
11:25AM 44.9000 -66.6167 90° East 460 529 31,000  Level Moncton Center
11:26AM 44.9000 -66.4500 90° East 460 529 31,000  Level Moncton Center
11:27AM 44.9000 -66.2667 90° East 460 529 31,000  Level Moncton Center
11:28AM 44.9167 -66.1000 82° East 460 529 31,000  Level Moncton Center
11:29AM 44.9167 -65.9167 90° East 460 529 31,000 -660 Level Moncton Center
11:30AM 44.9167 -65.7167 90° East 460 529 29,700 -1,500 Descending Moncton Center
11:31AM 44.9167 -65.5500 90° East 450 518 28,000 -1,980 Descending Moncton Center
11:32AM 44.9167 -65.3833 90° East 450 518 25,800 -2,400 Descending Moncton Center
11:33AM 44.9167 -65.2000 90° East 460 529 23,200 -2,520 Descending Moncton Center
11:34AM 44.9167 -65.0167 90° East 460 529 20,800 -2,280 Descending Moncton Center
11:35AM 44.9167 -64.8500 90° East 430 495 18,700 -2,100 Descending Moncton Center
11:36AM 44.9167 -64.6833 90° East 410 472 16,600 -2,040 Descending Moncton Center
11:37AM 44.9000 -64.5333 99° East 400 460 14,700 -1,980 Descending Moncton Center
11:38AM 44.8833 -64.3667 98° East 380 437 12,700 -1,800 Descending Moncton Center
11:39AM 44.8500 -64.2500 112° Southeast 350 403 11,200 -1,560 Descending Moncton Center
11:40AM 44.8167 -64.1333 112° Southeast 320 368 9,600 -1,620 Descending Moncton Center
11:41AM 44.7833 -64.0500 119° Southeast 300 345 8,000 -1,560 Descending Moncton Center
11:42AM 44.7667 -63.9333 101° East 280 322 6,500 -1,140 Descending Moncton Center
11:43AM 44.7333 -63.8333 115° Southeast 250 288 5,800 -1,080 Descending Moncton Center
11:44AM 44.7167 -63.7667 109° East 240 276 4,400 -1,200 Descending Moncton Center
11:45AM 44.7000 -63.6667 103° East 200 230 3,400 -960 Descending Moncton Center
11:46AM 44.7333 -63.6167 47° Northeast 190 219 2,500 -600 Descending Moncton Center
11:47AM 44.7833 -63.5667 35° Northeast 170 196 2,200 -540 Descending Moncton Center
11:48AM 44.8167 -63.5500 20° North 130 150 1,500 -720 Descending Moncton Center
11:49AM 44.8333 -63.5167 55° Northeast 130 150 800 -600 Descending Moncton Center
11:50AM 44.8667 -63.5000 20° North 130 150 400 -420 Descending Moncton Center